createdAt,value
2023-11-04T00:07:18.958Z,2.93
2023-11-04T00:17:20.514Z,2.93
2023-11-04T00:27:22.429Z,2.80
2023-11-04T00:37:24.145Z,2.72
2023-11-04T00:47:25.737Z,2.30
2023-11-04T00:57:27.296Z,1.40
2023-11-04T01:07:28.854Z,2.27
2023-11-04T01:17:30.490Z,2.20
2023-11-04T01:27:32.055Z,2.90
2023-11-04T01:37:33.614Z,3.20
2023-11-04T01:47:35.198Z,3.37
2023-11-04T01:57:37.904Z,4.47
2023-11-04T02:07:39.459Z,4.53
2023-11-04T02:17:40.983Z,5.90
2023-11-04T02:27:45.844Z,7.20
2023-11-04T02:37:47.722Z,7.13
2023-11-04T02:47:49.556Z,6.53
2023-11-04T02:57:51.592Z,6.90
2023-11-04T03:07:53.174Z,6.75
2023-11-04T03:17:54.741Z,7.10
2023-11-04T03:27:56.312Z,7.17
2023-11-04T03:37:57.931Z,6.93
2023-11-04T03:47:59.659Z,7.30
2023-11-04T03:58:01.356Z,5.93
2023-11-04T04:08:02.967Z,3.27
2023-11-04T04:18:04.654Z,2.83
2023-11-04T04:28:06.254Z,1.83
2023-11-04T04:38:07.782Z,2.37
2023-11-04T04:48:09.430Z,1.60
2023-11-04T04:58:11.018Z,1.00
2023-11-04T05:08:12.530Z,1.30
2023-11-04T05:18:14.111Z,0.90
2023-11-04T05:28:15.661Z,1.07
2023-11-04T05:38:17.133Z,1.20
2023-11-04T05:48:19.051Z,1.85
2023-11-04T05:58:20.592Z,1.00
2023-11-04T06:08:22.509Z,0.90
2023-11-04T06:18:24.118Z,0.70
2023-11-04T06:28:25.776Z,1.23
2023-11-04T06:38:27.321Z,0.60
2023-11-04T06:48:28.997Z,1.00
2023-11-04T06:58:30.743Z,0.77
2023-11-04T07:08:32.437Z,0.77
2023-11-04T07:18:34.057Z,1.03
2023-11-04T07:28:35.623Z,0.70
2023-11-04T07:38:37.140Z,1.13
2023-11-04T07:48:38.906Z,1.27
2023-11-04T07:58:40.659Z,2.22
2023-11-04T08:08:42.197Z,2.87
2023-11-04T08:18:43.768Z,2.47
2023-11-04T08:28:45.389Z,2.78
2023-11-04T08:38:46.938Z,3.37
2023-11-04T08:48:48.640Z,3.15
2023-11-04T08:58:50.235Z,2.63
2023-11-04T09:08:51.827Z,2.87
2023-11-04T09:18:53.539Z,3.40
2023-11-04T09:28:55.133Z,3.10
2023-11-04T09:38:56.701Z,3.30
2023-11-04T09:48:58.364Z,2.00
2023-11-04T09:58:59.981Z,2.37
2023-11-04T10:09:01.738Z,1.83
2023-11-04T10:19:04.180Z,2.47
2023-11-04T10:29:05.788Z,2.78
2023-11-04T10:39:10.579Z,2.43
2023-11-04T10:49:24.391Z,3.10
2023-11-04T10:59:39.069Z,1.33
2023-11-04T11:09:40.837Z,1.33
2023-11-04T11:20:00.641Z,1.50
2023-11-04T11:30:05.221Z,1.37
2023-11-04T11:40:10.455Z,1.13
2023-11-04T11:50:11.946Z,1.45
2023-11-04T12:00:14.220Z,1.77
2023-11-04T12:10:15.897Z,1.60
2023-11-04T12:20:17.479Z,1.97
2023-11-04T12:30:20.694Z,3.07
2023-11-04T12:40:22.982Z,4.75
2023-11-04T12:50:26.134Z,2.90
2023-11-04T13:00:27.618Z,3.88
2023-11-04T13:10:29.125Z,3.73
2023-11-04T13:20:30.651Z,4.13
2023-11-04T13:30:32.225Z,3.88
2023-11-04T13:40:33.733Z,5.33
2023-11-04T13:50:35.333Z,5.00
2023-11-04T14:00:36.909Z,5.30
2023-11-04T14:10:38.462Z,5.43
2023-11-04T14:20:40.027Z,4.70
2023-11-04T14:30:41.972Z,4.37
2023-11-04T14:40:44.079Z,4.00
2023-11-04T14:50:45.611Z,3.87
2023-11-04T15:00:47.220Z,4.40
2023-11-04T15:10:48.845Z,3.13
2023-11-04T15:20:50.427Z,3.10
2023-11-04T15:30:52.076Z,3.63
2023-11-04T15:40:53.625Z,3.67
2023-11-04T15:50:55.176Z,4.17
2023-11-04T16:00:56.823Z,3.53
2023-11-04T16:10:58.387Z,3.50
2023-11-04T16:21:01.352Z,5.20
2023-11-04T16:31:02.954Z,4.27
2023-11-04T16:41:04.594Z,4.80
2023-11-04T16:51:06.471Z,4.85
2023-11-04T17:01:08.042Z,4.80
2023-11-04T17:11:09.766Z,4.72
2023-11-04T17:21:11.296Z,5.30
2023-11-04T17:31:12.875Z,5.10
2023-11-04T17:41:14.459Z,5.60
2023-11-04T17:51:24.903Z,5.07
2023-11-04T18:01:26.521Z,5.90
2023-11-04T18:11:28.080Z,4.63
2023-11-04T18:21:29.602Z,4.63
2023-11-04T18:31:31.239Z,4.53
2023-11-04T18:41:32.805Z,5.63
2023-11-04T18:51:34.363Z,4.22
2023-11-04T19:01:35.972Z,3.80
2023-11-04T19:11:37.513Z,5.20
2023-11-04T19:21:39.041Z,4.15
2023-11-04T19:31:40.556Z,4.37
2023-11-04T19:41:42.050Z,4.93
2023-11-04T19:51:43.593Z,4.73
2023-11-04T20:01:45.132Z,5.23
2023-11-04T20:11:46.626Z,6.18
2023-11-04T20:21:48.157Z,5.20
2023-11-04T20:31:49.718Z,6.25
2023-11-04T20:41:51.240Z,6.47
2023-11-04T20:51:52.842Z,8.10
2023-11-04T21:01:54.443Z,7.43
2023-11-04T21:11:57.005Z,13.47
2023-11-04T21:21:59.470Z,10.07
2023-11-04T21:32:00.995Z,8.53
2023-11-04T21:42:02.552Z,8.60
2023-11-04T21:52:04.377Z,10.02
2023-11-04T22:02:05.937Z,7.57
2023-11-04T22:12:07.752Z,8.20
2023-11-04T22:22:09.596Z,7.23
2023-11-04T22:32:11.147Z,6.87
2023-11-04T22:42:12.680Z,7.28
2023-11-04T22:52:14.288Z,7.67
2023-11-04T23:02:15.839Z,9.40
2023-11-04T23:12:17.842Z,9.57
2023-11-04T23:22:19.520Z,8.20
2023-11-04T23:32:21.185Z,8.80
2023-11-04T23:42:22.756Z,8.43
2023-11-04T23:52:24.427Z,8.82
